Estación municipal de Seva (Osona, P.N. del Montseny)

Consulta los datos en tiempo real de la estación municipal de Seva





Hora UTC 10:25
Temperatura 17.6 ºC
Suelo 15 cm 23.6 ºC
Humedad 53.9 %
Presión 1015.6 hPa
Pluja 0.0 mm
Velocidad viento 6.2 km/h
Dirección viento SSW
Radiación solar 658.5 W/m²

Webcam

Datos diarios 2026-05-07



Hora UTC (invierno +1h; verano +2h)
Temperatura (ºC) Humedad (%) Presión (hPa) Velocidad viento (km/h) Precipitación (mm) Radiación solar (W/m²)
Hora UTC Aire Suelo 15 cm Humedad Presión Vel. Dir. Vel. Max Dir. Intent. máx 5 min. Rad. Sol.
00:05 10.1 9.2 94.1 1016.0 2.3 E 2.3 E 0.0 0.1
00:10 10.1 9.3 94.1 1016.0 2.2 ENE 3.5 ESE 0.0 0.0
00:15 10.1 9.3 94.2 1015.9 3.4 ENE 6.4 ENE 0.0 0.0
00:20 10.2 9.4 94.1 1015.9 2.2 ENE 3.9 ENE 0.0 0.1
00:25 10.2 9.4 94.0 1015.9 1.1 NE 2.5 NE 0.0 0.1
00:30 10.2 9.4 94.2 1015.9 1.8 NW 3.5 NW 0.0 0.1
00:35 10.2 9.5 94.4 1015.9 3.0 NW 5.6 WNW 0.0 0.1
00:40 10.1 9.5 94.3 1015.8 3.6 NW 5.3 NW 0.0 0.0
00:45 10.0 9.4 93.9 1015.8 4.1 NNW 6.7 NNW 0.0 0.0
00:50 9.8 9.3 93.1 1015.8 4.9 N 8.1 N 0.0 0.0
00:55 9.7 9.1 92.4 1015.7 3.2 NNE 6.4 N 0.0 0.1
01:00 9.7 8.9 91.8 1015.7 1.3 N 4.9 NNE 0.0 0.1
01:05 9.6 8.7 91.7 1015.7 1.7 NNE 5.3 NNE 0.0 0.0
01:10 9.5 8.5 91.7 1015.6 2.5 NE 4.2 NE 0.0 0.0
01:15 9.4 8.1 91.7 1015.5 0.6 NNE 2.8 N 0.0 0.1
01:20 9.2 7.6 92.4 1015.5 1.5 ESE 2.8 SE 0.0 0.1
01:25 8.9 7.2 92.9 1015.5 0.1 SE 1.4 SE 0.0 0.1
01:30 8.6 6.9 93.3 1015.4 1.8 ESE 2.8 SE 0.0 0.1
01:35 8.4 6.7 94.0 1015.4 0.4 ESE 1.8 ESE 0.0 0.1
01:40 8.2 6.5 94.6 1015.4 0.0 NNE 0.0 ESE 0.0 0.1
01:45 8.1 6.3 95.0 1015.4 0.0 NNE 0.0 ESE 0.0 0.1
01:50 8.0 6.1 95.5 1015.5 0.1 SSE 1.8 SSE 0.0 0.1
01:55 7.9 6.0 95.7 1015.5 0.5 SE 1.8 SE 0.0 0.1
02:00 7.8 5.9 95.9 1015.5 1.1 SE 1.8 SE 0.0 0.1
02:05 7.7 5.9 96.1 1015.4 0.4 SE 1.4 SE 0.0 0.1
02:10 7.6 5.9 96.2 1015.4 1.3 ESE 3.5 ESE 0.0 0.1
02:15 7.6 5.8 96.3 1015.4 3.0 ESE 3.5 ESE 0.0 0.1
02:20 7.5 5.7 96.5 1015.3 2.2 ESE 3.2 E 0.0 0.1
02:25 7.5 5.6 96.7 1015.3 0.9 ESE 2.1 ESE 0.0 0.1
02:30 7.4 5.6 96.7 1015.3 1.5 ESE 2.8 ESE 0.0 0.1
02:35 7.2 5.4 96.7 1015.3 1.8 ENE 3.9 ENE 0.0 0.1
02:40 7.2 5.5 96.9 1015.3 2.8 ENE 3.9 ENE 0.0 0.1
02:45 7.1 5.3 97.0 1015.3 3.1 ENE 5.3 NE 0.0 0.1
02:50 7.1 5.4 97.1 1015.3 2.8 ENE 4.6 NE 0.0 0.1
02:55 7.1 5.3 97.3 1015.2 2.2 E 3.2 E 0.0 0.1
03:00 7.1 5.3 97.4 1015.3 2.2 E 3.2 ENE 0.0 0.1
03:05 7.0 5.3 97.3 1015.3 2.9 E 4.6 E 0.0 0.1
03:10 6.9 5.2 97.4 1015.3 3.6 E 4.6 E 0.0 0.1
03:15 6.9 5.1 97.5 1015.2 2.8 E 4.2 E 0.0 0.0
03:20 6.9 5.0 97.5 1015.2 2.0 E 3.2 E 0.0 0.1
03:25 6.8 5.0 97.6 1015.2 1.7 ESE 2.5 ESE 0.0 0.1
03:30 6.9 4.9 97.8 1015.1 2.7 ESE 3.2 ESE 0.0 0.1
03:35 6.9 4.9 97.8 1015.2 2.8 ESE 3.9 ESE 0.0 0.0
03:40 6.9 4.8 97.9 1015.2 1.1 SE 2.1 SE 0.0 0.1
03:45 6.8 4.8 97.9 1015.2 0.3 E 1.4 SSE 0.0 0.1
03:50 6.8 4.9 98.0 1015.2 1.8 NE 3.2 N 0.0 0.1
03:55 6.8 4.8 98.0 1015.2 2.0 ENE 3.5 NNE 0.0 0.1
04:00 6.7 4.7 97.9 1015.2 2.1 NE 3.9 NE 0.0 0.1
04:05 6.7 4.7 98.1 1015.2 1.8 ENE 2.8 ENE 0.0 0.1
04:10 6.7 4.7 98.1 1015.3 2.0 E 3.5 E 0.0 0.1
04:15 6.7 4.7 98.2 1015.3 2.1 E 3.5 ENE 0.0 0.1
04:20 6.6 4.7 98.0 1015.3 3.1 ENE 4.6 ENE 0.0 0.1
04:25 6.5 4.6 98.0 1015.3 2.8 ENE 5.3 NE 0.0 0.4
04:30 6.5 4.6 98.2 1015.2 2.9 ENE 4.6 NE 0.0 0.9
04:35 6.5 4.6 98.2 1015.2 4.1 E 4.9 E 0.0 1.8
04:40 6.8 4.6 98.6 1015.2 3.8 E 5.3 E 0.0 3.1
04:45 6.7 4.7 98.3 1015.2 4.0 E 6.0 ENE 0.0 4.7
04:50 6.6 4.7 98.2 1015.2 4.8 E 6.7 E 0.0 6.8
04:55 6.6 4.7 98.3 1015.2 4.5 E 6.4 E 0.0 9.3
05:00 6.6 4.7 98.3 1015.2 4.5 E 6.0 ESE 0.0 12.0
05:05 6.7 4.8 98.4 1015.3 4.4 E 6.4 E 0.0 14.7
05:10 6.6 4.9 98.2 1015.3 3.9 E 5.6 E 0.0 17.3
05:15 6.6 4.9 98.3 1015.3 4.4 E 6.0 E 0.0 20.2
05:20 6.6 5.0 98.3 1015.2 3.9 ENE 4.9 ENE 0.0 22.2
05:25 6.7 5.1 98.4 1015.3 3.5 E 4.9 ENE 0.0 26.7
05:30 6.9 5.2 98.5 1015.3 2.7 ENE 3.9 NE 0.0 87.2
05:35 7.1 5.5 98.6 1015.3 2.5 ENE 3.2 ENE 0.0 116.4
05:40 7.4 5.7 98.6 1015.4 2.2 E 3.2 ESE 0.0 129.6
05:45 7.9 5.8 98.4 1015.5 1.2 ENE 2.5 ENE 0.0 143.8
05:50 8.5 6.1 97.8 1015.5 0.5 N 3.2 N 0.0 156.7
05:55 9.0 7.3 97.0 1015.6 0.4 NE 1.8 NNE 0.0 170.3
06:00 9.5 8.5 96.2 1015.6 0.5 NE 2.5 NNE 0.0 183.7
06:05 10.2 9.4 95.4 1015.6 1.0 N 2.5 N 0.0 197.4
06:10 10.6 10.3 93.0 1015.6 0.9 NNE 2.8 N 0.0 210.4
06:15 10.9 11.6 89.7 1015.6 1.8 NNE 3.2 NNE 0.0 209.8
06:20 11.0 12.7 87.3 1015.6 1.4 N 3.2 NNW 0.0 239.2
06:25 11.1 13.8 85.8 1015.6 2.9 NNW 5.6 NNW 0.0 253.9
06:30 11.2 14.5 85.0 1015.6 2.3 N 4.2 NNW 0.0 268.6
06:35 11.3 15.0 83.3 1015.6 3.7 NNW 4.9 N 0.0 284.8
06:40 11.3 15.5 83.8 1015.6 3.6 NNW 4.9 NNW 0.0 299.0
06:45 11.3 15.9 83.3 1015.6 3.8 NNW 6.0 NNW 0.0 314.6
06:50 11.3 16.3 82.8 1015.7 3.9 NNW 6.0 NNW 0.0 328.7
06:55 11.4 16.6 81.9 1015.8 3.7 NNW 5.6 N 0.0 344.9
07:00 11.7 17.1 82.4 1015.8 3.3 NNW 4.9 N 0.0 361.0
07:05 11.9 17.9 82.0 1015.8 2.6 NNW 5.3 NNW 0.0 376.6
07:10 12.1 18.3 81.1 1015.9 2.4 NW 4.6 NNW 0.0 392.3
07:15 12.2 18.7 79.7 1016.0 1.5 W 5.6 WSW 0.0 407.8
07:20 12.5 18.9 80.6 1016.0 2.8 W 4.9 WSW 0.0 424.4
07:25 12.9 19.6 78.7 1016.0 1.8 W 4.2 W 0.0 439.6
07:30 12.8 19.9 77.9 1016.1 2.5 W 6.4 W 0.0 455.8
07:35 13.2 20.4 78.5 1016.1 2.5 W 7.8 SSE 0.0 470.3
07:40 13.4 20.1 78.1 1016.2 5.2 SSW 13.8 SSE 0.0 487.4
07:45 13.7 19.9 78.5 1016.1 2.6 SW 7.4 SW 0.0 504.2
07:50 14.2 20.1 76.9 1016.1 6.2 SSE 15.9 SSE 0.0 516.8
07:55 14.1 19.7 75.8 1016.0 7.8 S 13.8 SSW 0.0 534.0
08:00 14.6 20.1 76.3 1016.0 5.1 SSW 9.5 SE 0.0 473.4
08:05 14.9 20.5 74.7 1016.0 4.8 SSE 10.9 SSE 0.0 583.0
08:10 15.0 20.9 72.5 1015.9 5.1 S 13.8 SSE 0.0 606.6
08:15 15.5 21.6 72.4 1015.9 4.5 SSW 14.1 S 0.0 614.4
08:20 15.6 21.9 69.5 1015.9 5.4 SSW 13.4 WSW 0.0 616.2
08:25 15.5 21.9 68.3 1015.9 6.2 S 12.0 S 0.0 607.0
08:30 15.6 21.8 69.0 1015.8 5.3 S 12.7 SSW 0.0 569.9
08:35 15.4 21.2 68.3 1015.8 6.1 S 16.9 SSE 0.0 570.4
08:40 15.7 21.5 68.4 1015.8 6.9 S 13.4 ESE 0.0 596.2
08:45 15.2 21.1 68.9 1015.8 7.3 S 15.2 SSW 0.0 657.2
08:50 15.5 21.5 67.0 1015.8 5.4 S 11.6 SSW 0.0 667.3
08:55 15.6 21.9 67.3 1015.7 4.1 S 11.3 SSE 0.0 665.7
09:00 15.9 22.1 66.2 1015.7 6.0 S 13.4 SE 0.0 666.7
09:05 16.1 22.4 63.7 1015.8 5.2 SW 11.6 SSW 0.0 682.3
09:10 16.1 23.2 64.4 1015.8 4.6 SSW 13.8 SSW 0.0 726.7
09:15 16.7 23.6 63.5 1015.8 6.2 SSW 13.1 S 0.0 743.7
09:20 16.9 23.8 63.1 1015.8 5.4 SSW 14.5 SW 0.0 764.1
09:25 17.1 24.5 61.3 1015.8 5.3 S 14.5 SW 0.0 771.6
09:30 16.9 24.1 59.4 1015.9 5.3 S 10.9 SW 0.0 782.3
09:35 16.8 24.0 59.8 1015.9 5.6 SSE 14.1 S 0.0 784.7
09:40 16.7 23.7 59.7 1016.0 8.3 SE 14.1 SSE 0.0 806.0
09:45 16.7 23.6 60.2 1015.9 6.2 SE 13.8 ESE 0.0 841.0
09:50 17.0 23.8 61.1 1015.9 5.5 SSE 15.9 SSE 0.0 829.0
09:55 17.3 24.1 59.1 1015.9 5.5 S 14.8 SW 0.0 844.0
10:00 17.7 24.7 56.9 1015.9 4.9 SW 12.4 S 0.0 824.0
10:05 17.8 25.1 56.3 1015.8 4.6 SSW 11.3 SW 0.0 808.0
10:10 17.7 25.4 55.0 1015.7 5.3 SW 13.1 WSW 0.0 842.0
10:15 17.6 25.6 54.5 1015.7 5.6 S 14.1 SSW 0.0 641.5
10:20 17.4 23.7 55.9 1015.6 4.0 SSW 12.4 S 0.0 595.5
10:25 17.6 23.6 53.9 1015.6 6.2 SSW 14.8 SSE 0.0 658.5
Máxima 17.8 25.6 98.6 1016.2 8.3 SE 16.9 SSE 0.0 844.0
Mínima 6.5 4.6 53.9 1015.1
Total 0.0